createdAt,value
2019-02-07T00:01:51.388Z,22.57
2019-02-07T00:04:21.031Z,24.67
2019-02-07T00:06:50.399Z,24.37
2019-02-07T00:09:19.670Z,28.50
2019-02-07T00:11:49.768Z,22.30
2019-02-07T00:14:19.342Z,24.57
2019-02-07T00:16:49.764Z,23.10
2019-02-07T00:19:19.066Z,23.23
2019-02-07T00:21:48.953Z,22.23
2019-02-07T00:24:18.518Z,21.23
2019-02-07T00:26:47.806Z,24.07
2019-02-07T00:29:17.505Z,23.77
2019-02-07T00:31:47.142Z,21.20
2019-02-07T00:34:16.607Z,22.30
2019-02-07T00:36:46.247Z,21.83
2019-02-07T00:39:15.639Z,20.83
2019-02-07T00:41:44.935Z,29.63
2019-02-07T00:44:14.226Z,20.80
2019-02-07T00:46:43.494Z,23.50
2019-02-07T00:49:13.074Z,21.90
2019-02-07T00:51:42.627Z,23.00
2019-02-07T00:54:11.991Z,19.70
2019-02-07T00:56:41.288Z,22.73
2019-02-07T00:59:11.063Z,20.40
2019-02-07T01:01:40.342Z,18.87
2019-02-07T01:04:09.709Z,22.20
2019-02-07T01:06:39.356Z,17.43
2019-02-07T01:09:10.149Z,19.00
2019-02-07T01:11:39.918Z,24.63
2019-02-07T01:14:09.291Z,21.47
2019-02-07T01:16:39.076Z,23.20
2019-02-07T01:19:08.409Z,21.63
2019-02-07T01:21:38.329Z,20.87
2019-02-07T01:24:08.562Z,20.67
2019-02-07T01:26:37.962Z,26.67
2019-02-07T01:29:07.580Z,27.07
2019-02-07T01:31:36.911Z,24.47
2019-02-07T01:34:06.281Z,27.07
2019-02-07T01:36:35.615Z,24.40
2019-02-07T01:39:08.758Z,22.80
2019-02-07T01:41:38.164Z,27.80
2019-02-07T01:44:07.519Z,25.73
2019-02-07T01:46:36.867Z,29.07
2019-02-07T01:49:06.187Z,28.30
2019-02-07T01:51:35.504Z,27.60
2019-02-07T01:54:05.115Z,27.93
2019-02-07T01:56:34.393Z,28.93
2019-02-07T01:59:04.018Z,28.03
2019-02-07T02:01:33.635Z,25.77
2019-02-07T02:04:03.076Z,28.27
2019-02-07T02:06:32.463Z,28.97
2019-02-07T02:09:01.741Z,24.57
2019-02-07T02:11:31.003Z,32.37
2019-02-07T02:14:00.634Z,30.60
2019-02-07T02:16:30.026Z,26.83
2019-02-07T02:18:59.322Z,29.77
2019-02-07T02:21:28.771Z,29.47
2019-02-07T02:23:58.496Z,31.10
2019-02-07T02:26:27.878Z,31.83
2019-02-07T02:28:57.489Z,30.50
2019-02-07T02:31:26.822Z,28.77
2019-02-07T02:33:56.202Z,31.40
2019-02-07T02:36:25.504Z,33.67
2019-02-07T02:38:55.214Z,32.70
2019-02-07T02:41:24.522Z,30.70
2019-02-07T02:43:54.108Z,30.07
2019-02-07T02:46:23.387Z,32.93
2019-02-07T02:48:53.137Z,30.33
2019-02-07T02:51:22.751Z,27.77
2019-02-07T02:53:54.491Z,27.90
2019-02-07T02:56:23.854Z,28.63
2019-02-07T02:58:53.116Z,28.13
2019-02-07T03:01:40.154Z,29.20
2019-02-07T03:04:40.554Z,29.13
2019-02-07T03:07:28.775Z,30.97
2019-02-07T03:10:17.079Z,29.23
2019-02-07T03:13:10.819Z,31.13
2019-02-07T03:16:05.101Z,29.00
2019-02-07T03:18:53.417Z,30.07
2019-02-07T03:21:38.651Z,27.67
2019-02-07T03:24:25.918Z,31.20
2019-02-07T03:27:13.456Z,33.13
2019-02-07T03:29:56.102Z,34.23
2019-02-07T03:32:50.198Z,30.60
2019-02-07T03:35:46.610Z,25.83
2019-02-07T03:38:30.046Z,29.90
2019-02-07T03:41:21.456Z,24.87
2019-02-07T03:44:12.631Z,28.27
2019-02-07T03:47:03.736Z,28.70
2019-02-07T03:49:57.782Z,32.17
2019-02-07T03:52:34.152Z,29.83
2019-02-07T03:55:25.232Z,29.77
2019-02-07T03:58:12.185Z,28.43
2019-02-07T04:01:03.911Z,25.87
2019-02-07T04:03:41.776Z,28.03
2019-02-07T04:06:29.000Z,30.60
2019-02-07T04:09:32.822Z,27.93
2019-02-07T04:12:24.234Z,31.57
2019-02-07T04:15:11.160Z,29.73
2019-02-07T04:17:52.368Z,28.57
2019-02-07T04:20:44.039Z,31.43
2019-02-07T04:23:26.116Z,27.77
2019-02-07T04:26:13.266Z,29.07
2019-02-07T04:29:14.109Z,30.00
2019-02-07T04:32:04.799Z,29.07
2019-02-07T04:34:56.046Z,32.60
2019-02-07T04:37:53.279Z,32.60
2019-02-07T04:40:53.827Z,87.60
2019-02-07T04:43:45.587Z,30.70
2019-02-07T04:46:27.329Z,26.80
2019-02-07T04:49:20.685Z,32.63
2019-02-07T04:52:08.993Z,28.83
2019-02-07T04:55:00.343Z,29.17
2019-02-07T04:58:00.736Z,28.87
2019-02-07T05:00:51.749Z,28.00
2019-02-07T05:03:39.391Z,27.37
2019-02-07T05:06:46.027Z,27.43
2019-02-07T05:09:49.364Z,28.13
2019-02-07T05:12:46.931Z,27.63
2019-02-07T05:15:24.463Z,29.57
2019-02-07T05:18:25.076Z,30.37
2019-02-07T05:21:12.121Z,30.73
2019-02-07T05:24:00.821Z,24.87
2019-02-07T05:26:48.078Z,31.50
2019-02-07T05:29:48.994Z,25.67
2019-02-07T05:32:36.540Z,24.13
2019-02-07T05:35:25.510Z,27.33
2019-02-07T05:38:07.504Z,24.80
2019-02-07T05:40:53.455Z,25.10
2019-02-07T05:43:37.961Z,29.93
2019-02-07T05:46:26.989Z,25.50
2019-02-07T05:49:14.531Z,26.60
2019-02-07T05:51:56.251Z,26.50
2019-02-07T05:54:43.936Z,25.17
2019-02-07T05:57:41.743Z,24.33
2019-02-07T06:00:20.750Z,27.50
2019-02-07T06:03:24.283Z,29.20
2019-02-07T06:06:25.004Z,25.47
2019-02-07T06:09:12.392Z,24.20
2019-02-07T06:12:15.959Z,29.50
2019-02-07T06:15:12.559Z,24.13
2019-02-07T06:18:16.260Z,21.10
2019-02-07T06:21:03.092Z,24.13
2019-02-07T06:24:01.331Z,24.37
2019-02-07T06:26:44.323Z,23.17
2019-02-07T06:29:30.991Z,22.50
2019-02-07T06:32:19.288Z,22.97
2019-02-07T06:35:06.407Z,19.80
2019-02-07T06:37:55.895Z,21.97
2019-02-07T06:40:44.207Z,20.73
2019-02-07T06:43:31.096Z,18.60
2019-02-07T06:46:28.502Z,21.27
2019-02-07T06:49:15.658Z,28.53
2019-02-07T06:52:03.163Z,19.30
2019-02-07T06:54:46.495Z,24.53
2019-02-07T06:57:37.015Z,17.23
2019-02-07T07:00:32.228Z,20.03
2019-02-07T07:03:13.944Z,19.40
2019-02-07T07:06:13.215Z,18.40
2019-02-07T07:09:07.915Z,18.43
2019-02-07T07:12:01.940Z,18.00
2019-02-07T07:14:41.584Z,20.40
2019-02-07T07:17:25.801Z,20.70
2019-02-07T07:20:19.041Z,19.87
2019-02-07T07:23:05.940Z,22.67
2019-02-07T07:25:53.550Z,20.27
2019-02-07T07:28:41.771Z,18.43
2019-02-07T07:31:30.097Z,22.33
2019-02-07T07:34:20.257Z,20.40
2019-02-07T07:37:08.489Z,19.30
2019-02-07T07:39:57.458Z,21.27
2019-02-07T07:42:44.326Z,24.40
2019-02-07T07:45:44.180Z,22.53
2019-02-07T07:48:30.289Z,24.57
2019-02-07T07:51:14.473Z,23.17
2019-02-07T07:54:01.929Z,21.83
2019-02-07T07:56:49.144Z,22.00
2019-02-07T07:59:36.400Z,23.63
2019-02-07T08:02:27.780Z,23.80
2019-02-07T08:05:14.789Z,23.93
2019-02-07T08:08:02.132Z,24.73
2019-02-07T08:10:56.748Z,24.37
2019-02-07T08:13:43.934Z,28.90
2019-02-07T08:16:44.823Z,23.30
2019-02-07T08:19:45.675Z,23.60
2019-02-07T08:22:33.391Z,24.67
2019-02-07T08:25:20.594Z,25.60
2019-02-07T08:28:21.248Z,22.67
2019-02-07T08:31:02.117Z,24.47
2019-02-07T08:33:58.032Z,22.70
2019-02-07T08:36:47.169Z,21.53
2019-02-07T08:39:57.700Z,23.43
2019-02-07T08:42:44.936Z,22.87
2019-02-07T08:45:45.335Z,24.33
2019-02-07T08:48:25.798Z,21.43
2019-02-07T08:51:08.568Z,20.90
2019-02-07T08:53:55.814Z,21.10
2019-02-07T08:56:31.712Z,20.10
2019-02-07T08:59:29.491Z,20.07
2019-02-07T09:02:12.550Z,21.60
2019-02-07T09:04:59.471Z,21.00
2019-02-07T09:08:02.853Z,21.03
2019-02-07T09:11:01.424Z,19.43
2019-02-07T09:13:55.961Z,17.23
2019-02-07T09:16:43.139Z,15.53
2019-02-07T09:19:24.459Z,11.57
2019-02-07T09:22:23.792Z,9.60
2019-02-07T09:25:14.943Z,13.10
2019-02-07T09:28:12.467Z,9.93
2019-02-07T09:31:10.023Z,7.43
2019-02-07T09:34:05.770Z,7.43
2019-02-07T09:36:57.499Z,7.90
2019-02-07T09:39:52.429Z,9.07
2019-02-07T09:42:50.202Z,8.33
2019-02-07T09:45:55.107Z,8.70
2019-02-07T09:48:42.087Z,7.30
2019-02-07T09:51:28.316Z,9.40
2019-02-07T09:54:10.020Z,5.50
2019-02-07T09:57:01.089Z,9.27
2019-02-07T09:59:55.236Z,6.40
2019-02-07T10:02:58.627Z,10.63
2019-02-07T10:05:35.610Z,7.47
2019-02-07T10:08:15.145Z,6.83
2019-02-07T10:11:01.978Z,8.60
2019-02-07T10:13:49.369Z,7.70
2019-02-07T10:16:30.194Z,16.07
2019-02-07T10:19:21.609Z,16.77
2019-02-07T10:22:09.854Z,11.37
2019-02-07T10:25:04.198Z,14.53
2019-02-07T10:27:46.185Z,12.70
2019-02-07T10:30:35.906Z,12.97
2019-02-07T10:33:36.589Z,14.97
2019-02-07T10:36:40.352Z,12.40
2019-02-07T10:39:34.252Z,21.33
2019-02-07T10:42:25.708Z,15.57
2019-02-07T10:45:17.751Z,16.60
2019-02-07T10:48:04.788Z,19.83
2019-02-07T10:50:58.959Z,9.50
2019-02-07T10:53:50.343Z,15.30
2019-02-07T10:56:36.968Z,12.17
2019-02-07T10:59:28.709Z,8.30
2019-02-07T11:02:15.515Z,10.87
2019-02-07T11:05:10.904Z,8.87
2019-02-07T11:08:05.681Z,5.80
2019-02-07T11:11:07.552Z,14.80
2019-02-07T11:13:54.391Z,10.60
2019-02-07T11:16:52.124Z,17.23
2019-02-07T11:19:43.183Z,15.97
2019-02-07T11:22:30.712Z,15.00
2019-02-07T11:25:17.842Z,15.67
2019-02-07T11:28:10.622Z,14.43
2019-02-07T11:30:55.547Z,22.13
2019-02-07T11:33:42.546Z,28.43
2019-02-07T11:36:25.351Z,22.30
2019-02-07T11:39:17.935Z,18.40
2019-02-07T11:42:21.567Z,24.27
2019-02-07T11:45:24.979Z,24.27
2019-02-07T11:48:13.587Z,18.43
2019-02-07T11:51:14.413Z,15.87
2019-02-07T11:54:03.378Z,25.40
2019-02-07T11:57:00.684Z,26.47
2019-02-07T12:00:04.169Z,26.67
2019-02-07T12:03:02.000Z,20.27
2019-02-07T12:05:50.656Z,20.03
2019-02-07T12:08:32.893Z,28.40
2019-02-07T12:11:28.655Z,19.00
2019-02-07T12:14:06.552Z,28.47
2019-02-07T12:16:47.709Z,23.73
2019-02-07T12:19:45.013Z,16.50
2019-02-07T12:22:26.378Z,21.23
2019-02-07T12:25:18.723Z,20.33
2019-02-07T12:28:11.371Z,20.80
2019-02-07T12:31:02.976Z,14.83
2019-02-07T12:33:44.263Z,19.93
2019-02-07T12:36:24.134Z,12.17
2019-02-07T12:39:02.283Z,19.10
2019-02-07T12:41:50.524Z,17.00
2019-02-07T12:44:36.569Z,17.87
2019-02-07T12:47:23.875Z,21.47
2019-02-07T12:50:21.383Z,26.67
2019-02-07T12:53:18.708Z,14.50
2019-02-07T12:56:06.419Z,23.53
2019-02-07T12:58:57.979Z,31.13
2019-02-07T13:01:43.557Z,19.50
2019-02-07T13:04:49.614Z,20.43
2019-02-07T13:07:36.535Z,20.80
2019-02-07T13:10:17.948Z,18.33
2019-02-07T13:13:09.014Z,20.57
2019-02-07T13:15:56.307Z,17.80
2019-02-07T13:18:37.573Z,12.70
2019-02-07T13:21:24.761Z,16.93
2019-02-07T13:24:13.401Z,16.13
2019-02-07T13:27:05.730Z,9.93
2019-02-07T13:30:01.152Z,15.63
2019-02-07T13:32:52.630Z,11.13
2019-02-07T13:35:30.859Z,17.27
2019-02-07T13:38:34.819Z,15.67
2019-02-07T13:41:22.607Z,14.77
2019-02-07T13:44:25.979Z,18.07
2019-02-07T13:47:20.084Z,18.97
2019-02-07T13:50:20.940Z,12.83
2019-02-07T13:53:28.023Z,22.40
2019-02-07T13:56:20.638Z,22.23
2019-02-07T13:59:07.432Z,13.97
2019-02-07T14:02:08.042Z,12.40
2019-02-07T14:05:05.726Z,12.07
2019-02-07T14:07:50.227Z,12.00
2019-02-07T14:10:44.716Z,15.50
2019-02-07T14:13:32.237Z,15.27
2019-02-07T14:16:19.252Z,14.90
2019-02-07T14:19:12.753Z,15.90
2019-02-07T14:22:07.026Z,12.13
2019-02-07T14:25:07.252Z,9.50
2019-02-07T14:27:50.719Z,8.30
2019-02-07T14:30:38.092Z,12.27
2019-02-07T14:33:13.531Z,11.67
2019-02-07T14:36:18.202Z,9.77
2019-02-07T14:39:05.271Z,14.67
2019-02-07T14:41:57.075Z,12.27
2019-02-07T14:44:52.218Z,13.30
2019-02-07T14:47:22.090Z,14.70
2019-02-07T14:49:51.758Z,12.67
2019-02-07T14:52:21.340Z,11.83
2019-02-07T14:54:50.695Z,8.97
2019-02-07T14:57:20.402Z,11.97
2019-02-07T14:59:51.355Z,13.57
2019-02-07T15:02:21.307Z,11.33
2019-02-07T15:04:50.871Z,12.47
2019-02-07T15:07:20.317Z,10.43
2019-02-07T15:09:49.699Z,10.03
2019-02-07T15:12:19.115Z,9.10
2019-02-07T15:14:48.775Z,11.63
2019-02-07T15:17:18.425Z,9.90
2019-02-07T15:19:47.785Z,9.43
2019-02-07T15:22:17.148Z,14.57
2019-02-07T15:24:46.494Z,10.70
2019-02-07T15:27:15.764Z,20.37
2019-02-07T15:29:45.421Z,8.47
2019-02-07T15:32:15.369Z,15.60
2019-02-07T15:34:44.802Z,16.57
2019-02-07T15:37:14.146Z,8.97
2019-02-07T15:39:43.764Z,13.47
2019-02-07T15:42:13.073Z,6.37
2019-02-07T15:44:42.741Z,13.50
2019-02-07T15:47:12.196Z,11.07
2019-02-07T15:49:41.583Z,4.43
2019-02-07T15:52:12.028Z,8.70
2019-02-07T15:54:41.911Z,13.17
2019-02-07T15:57:11.489Z,14.57
2019-02-07T15:59:46.128Z,14.87
2019-02-07T16:02:25.491Z,16.37
2019-02-07T16:04:55.276Z,12.10
2019-02-07T16:07:24.573Z,13.50
2019-02-07T16:09:54.375Z,13.37
2019-02-07T16:12:24.291Z,14.93
2019-02-07T16:14:54.257Z,14.33
2019-02-07T16:17:23.568Z,13.13
2019-02-07T16:19:52.886Z,15.50
2019-02-07T16:22:22.597Z,13.73
2019-02-07T16:24:52.011Z,14.10
2019-02-07T16:27:21.486Z,13.40
2019-02-07T16:29:50.841Z,10.53
2019-02-07T16:32:20.575Z,12.23
2019-02-07T16:34:49.872Z,17.73
2019-02-07T16:37:19.840Z,12.60
2019-02-07T16:39:49.231Z,11.83
2019-02-07T16:42:19.030Z,10.83
2019-02-07T16:44:48.426Z,13.00
2019-02-07T16:47:18.053Z,11.20
2019-02-07T16:49:47.939Z,14.83
2019-02-07T16:52:17.308Z,16.57
2019-02-07T16:54:46.659Z,12.57
2019-02-07T16:57:17.047Z,14.63
2019-02-07T16:59:46.341Z,11.93
2019-02-07T17:02:15.715Z,11.13
2019-02-07T17:04:45.387Z,10.73
2019-02-07T17:07:14.768Z,10.83
2019-02-07T17:09:45.510Z,14.63
2019-02-07T17:12:14.808Z,12.67
2019-02-07T17:14:44.169Z,8.93
2019-02-07T17:17:13.799Z,11.23
2019-02-07T17:19:43.115Z,17.10
2019-02-07T17:22:13.066Z,19.40
2019-02-07T17:24:42.840Z,12.67
2019-02-07T17:27:12.127Z,12.00
2019-02-07T17:29:41.651Z,16.57
2019-02-07T17:32:15.800Z,14.10
2019-02-07T17:34:45.191Z,12.77
2019-02-07T17:37:14.471Z,15.70
2019-02-07T17:39:44.139Z,14.33
2019-02-07T17:42:13.521Z,22.07
2019-02-07T17:44:42.819Z,30.97
2019-02-07T17:47:12.247Z,14.90
2019-02-07T17:49:41.647Z,14.77
2019-02-07T17:52:10.903Z,14.00
2019-02-07T17:54:40.862Z,11.37
2019-02-07T17:57:10.510Z,14.37
2019-02-07T17:59:40.194Z,13.23
2019-02-07T18:02:28.496Z,12.90
2019-02-07T18:08:28.070Z,12.57
2019-02-07T18:11:35.812Z,10.57
2019-02-07T18:14:05.443Z,12.83
2019-02-07T18:16:35.472Z,13.10
2019-02-07T18:19:05.208Z,10.50
2019-02-07T18:21:35.158Z,16.83
2019-02-07T18:24:05.135Z,8.97
2019-02-07T18:26:34.427Z,17.23
2019-02-07T18:29:04.076Z,14.90
2019-02-07T18:31:33.858Z,9.83
2019-02-07T18:34:03.396Z,7.73
2019-02-07T18:36:32.702Z,14.77
2019-02-07T18:39:02.024Z,9.83
2019-02-07T18:41:31.315Z,10.00
2019-02-07T18:44:00.668Z,12.10
2019-02-07T18:46:30.451Z,13.77
2019-02-07T18:48:59.899Z,16.63
2019-02-07T18:51:29.455Z,20.37
2019-02-07T18:53:59.439Z,13.43
2019-02-07T18:56:28.753Z,10.33
2019-02-07T18:58:58.159Z,9.17
2019-02-07T19:01:27.818Z,9.67
2019-02-07T19:03:57.108Z,8.93
2019-02-07T19:06:26.586Z,7.43
2019-02-07T19:08:55.894Z,11.83
2019-02-07T19:11:25.591Z,10.80
2019-02-07T19:13:54.939Z,13.90
2019-02-07T19:16:24.395Z,11.53
2019-02-07T19:18:53.668Z,10.03
2019-02-07T19:21:23.058Z,13.50
2019-02-07T19:23:52.360Z,14.10
2019-02-07T19:26:21.614Z,16.67
2019-02-07T19:28:50.959Z,14.07
2019-02-07T19:31:20.479Z,11.73
2019-02-07T19:33:49.758Z,12.27
2019-02-07T19:36:19.344Z,12.13
2019-02-07T19:38:48.699Z,9.93
2019-02-07T19:41:17.963Z,9.27
2019-02-07T19:43:47.317Z,12.97
2019-02-07T19:46:16.886Z,8.53
2019-02-07T19:48:46.424Z,9.13
2019-02-07T19:51:16.564Z,8.33
2019-02-07T19:53:45.979Z,6.60
2019-02-07T19:56:15.622Z,13.47
2019-02-07T19:58:45.608Z,13.07
2019-02-07T20:01:14.878Z,7.97
2019-02-07T20:03:44.708Z,10.27
2019-02-07T20:06:14.315Z,4.60
2019-02-07T20:08:43.798Z,7.13
2019-02-07T20:11:14.021Z,11.73
2019-02-07T20:13:43.759Z,5.90
2019-02-07T20:16:13.116Z,10.07
2019-02-07T20:18:43.084Z,14.93
2019-02-07T20:21:12.626Z,9.73
2019-02-07T20:23:42.386Z,8.97
2019-02-07T20:26:11.771Z,7.63
2019-02-07T20:28:41.131Z,11.33
2019-02-07T20:31:12.003Z,10.10
2019-02-07T20:33:41.930Z,6.37
2019-02-07T20:36:11.356Z,10.07
2019-02-07T20:38:41.341Z,8.70
2019-02-07T20:41:11.068Z,8.93
2019-02-07T20:43:40.790Z,17.97
2019-02-07T20:46:10.492Z,7.53
2019-02-07T20:48:40.224Z,7.83
2019-02-07T20:51:10.327Z,11.83
2019-02-07T20:53:39.704Z,9.93
2019-02-07T20:56:09.217Z,10.53
2019-02-07T20:58:39.054Z,5.37
2019-02-07T21:01:08.448Z,5.70
2019-02-07T21:03:37.791Z,15.63
2019-02-07T21:06:07.480Z,8.13
2019-02-07T21:08:36.827Z,10.57
2019-02-07T21:11:06.121Z,8.83
2019-02-07T21:13:35.521Z,9.80
2019-02-07T21:16:04.908Z,6.13
2019-02-07T21:18:34.569Z,10.30
2019-02-07T21:21:03.924Z,4.90
2019-02-07T21:23:33.571Z,10.43
2019-02-07T21:26:03.278Z,11.30
2019-02-07T21:28:32.667Z,10.07
2019-02-07T21:31:01.935Z,5.70
2019-02-07T21:33:31.310Z,9.73
2019-02-07T21:36:00.797Z,9.63
2019-02-07T21:38:30.423Z,16.67
2019-02-07T21:40:59.839Z,8.97
2019-02-07T21:43:29.262Z,10.00
2019-02-07T21:45:58.614Z,12.57
2019-02-07T21:48:27.919Z,11.23
2019-02-07T21:50:57.613Z,13.47
2019-02-07T21:53:27.518Z,7.00
2019-02-07T21:55:57.159Z,6.60
2019-02-07T21:58:26.519Z,6.33
2019-02-07T22:00:55.806Z,8.30
2019-02-07T22:03:25.230Z,7.07
2019-02-07T22:05:54.682Z,9.73
2019-02-07T22:08:24.191Z,8.17
2019-02-07T22:10:56.115Z,9.07
2019-02-07T22:13:26.056Z,7.23
2019-02-07T22:15:55.747Z,10.43
2019-02-07T22:18:25.462Z,7.50
2019-02-07T22:20:55.177Z,7.87
2019-02-07T22:23:24.453Z,12.57
2019-02-07T22:25:54.186Z,4.40
2019-02-07T22:28:23.792Z,7.77
2019-02-07T22:30:53.194Z,7.13
2019-02-07T22:33:22.583Z,4.83
2019-02-07T22:35:52.141Z,8.77
2019-02-07T22:38:22.048Z,6.20
2019-02-07T22:40:53.651Z,5.40
2019-02-07T22:43:23.823Z,6.00
2019-02-07T22:45:53.511Z,12.43
2019-02-07T22:48:23.100Z,10.67
2019-02-07T22:50:52.402Z,9.93
2019-02-07T22:53:21.761Z,7.80
2019-02-07T22:55:51.385Z,5.90
2019-02-07T22:58:21.310Z,8.07
2019-02-07T23:01:18.317Z,10.10
2019-02-07T23:03:49.987Z,8.30
2019-02-07T23:06:19.821Z,9.23
2019-02-07T23:08:49.294Z,11.37
2019-02-07T23:11:18.502Z,10.20
2019-02-07T23:13:48.245Z,5.77
2019-02-07T23:16:18.264Z,8.13
2019-02-07T23:18:48.280Z,8.00
2019-02-07T23:21:17.988Z,9.97
2019-02-07T23:23:48.733Z,8.17
2019-02-07T23:26:18.093Z,6.40
2019-02-07T23:28:47.582Z,8.77
2019-02-07T23:31:17.261Z,8.80
2019-02-07T23:33:46.907Z,7.87
2019-02-07T23:36:16.209Z,7.43
2019-02-07T23:38:45.579Z,8.43
2019-02-07T23:41:14.939Z,9.67
2019-02-07T23:43:46.222Z,6.60
2019-02-07T23:46:15.266Z,10.80
2019-02-07T23:48:45.047Z,7.97
2019-02-07T23:51:14.646Z,9.37
2019-02-07T23:53:44.308Z,10.00
2019-02-07T23:56:13.915Z,5.90
2019-02-07T23:58:43.669Z,8.20
